Skip to main content

Espinho/Aeródromo

ID 1210659 · 40.9737, -8.6434 map

Latest reading · 2026-05-09 19:00 (Europe/Lisbon)

Temperature
15.3 °C
Humidity
73 %
Pressure
1,005.5 hPa
Precipitation
0.1 mm
Radiation
Wind speed
21.6 km/h
Wind direction
SW · South-west

24-hour history

Time (Europe/Lisbon) Temp Humidity Pressure Rain Wind Dir
2026-05-09 19:00 15.3 °C 73 % 1,005.5 0.1 mm 21.6 km/h SW
2026-05-09 18:00 16.5 °C 69 % 1,004.8 0.0 mm 32.8 km/h SW
2026-05-09 17:00 16.3 °C 72 % 1,004.4 0.0 mm 29.2 km/h S
2026-05-09 16:00 15.9 °C 76 % 1,004.2 0.0 mm 30.2 km/h S
2026-05-09 15:00 14.1 °C 86 % 1,003.9 0.7 mm 15.5 km/h S
2026-05-09 14:00 15.5 °C 72 % 1,003.3 1.5 mm 16.6 km/h S
2026-05-09 13:00 16.8 °C 66 % 1,003.4 0.0 mm 19.1 km/h S
2026-05-09 12:00 14.4 °C 82 % 1,003.8 0.0 mm 14.0 km/h SE
2026-05-09 11:00 12.3 °C 90 % 1,004.2 1.0 mm 7.6 km/h SE
2026-05-09 10:00 12.2 °C 87 % 1,003.9 2.8 mm 6.5 km/h S
2026-05-09 09:00 11.9 °C 84 % 1,004.0 1.5 mm 8.6 km/h SE
2026-05-09 08:00 13.2 °C 71 % 1,003.5 0.0 mm 7.9 km/h S
2026-05-09 07:00 11.0 °C 82 % 1,003.5 0.0 mm 8.6 km/h E
2026-05-09 06:00 10.5 °C 87 % 1,003.9 0.0 mm 2.5 km/h E
2026-05-09 05:00 12.0 °C 80 % 1,004.2 0.0 mm 3.6 km/h SE
2026-05-09 04:00 12.8 °C 78 % 1,004.4 0.0 mm 9.0 km/h SE
2026-05-09 03:00 12.8 °C 83 % 1,004.9 0.0 mm 9.4 km/h SE
2026-05-09 02:00 12.6 °C 87 % 1,005.3 0.1 mm 6.1 km/h SE
2026-05-09 01:00 12.8 °C 87 % 1,006.2 0.7 mm 9.4 km/h E
2026-05-09 00:00 14.6 °C 67 % 1,005.9 0.4 mm 10.4 km/h S
2026-05-08 23:00 15.1 °C 61 % 1,005.4 0.0 mm 11.5 km/h E
2026-05-08 22:00 15.0 °C 61 % 1,005.7 0.0 mm 11.5 km/h E
2026-05-08 21:00 15.4 °C 62 % 1,005.9 0.0 mm 9.7 km/h E
2026-05-08 20:00 16.2 °C 52 % 1,006.2 0.0 mm 7.2 km/h N